Number One, Kentucky
Current Conditions -  °F | °C
As of 8:09 AM on Saturday 25 Oct 2014 (Local Time) from KEKQ Reporting Station
Haze Haze  
Wind Chill: 41°   Ceiling: Unl
Heat Index: 41°   Visibility: 2.5mi
Dew Point: 41°   Wind: 0mph
Humidity: 100%   Direction: NA
Pressure: 30.11"   Gusts: NA
Location:  36.8129°N, 84.8215°W
Report Text: KEKQ 251209Z AUTO 00000KT 2 1/2SM BR CLR 05/05 A3011 RMK AO2
Loading
Personal Weather Stations






























Interactive Weather Map New forecast layout! Learn more

10-Day Weather Forecast

Advertisements
Track Severe Weather on mobile